• Join FlightAware (Why Join?)
  • Login
  • US Flag 
04:45AM EDT


 

Airport Tracker/Info


-or-


 

Live Flight TrackerFlight Track Log ✈ KAP6 ✈ 26-Nov-2013 ✈ KOGS - KALB

Flight Track Log - Related Links

Times and Time Zones

All times are in EST time to prevent confusion due to time zone crossing. See the KAP6 flight status page for this flight to view local times or setup timezone preferences in your user account.

Time Position Orientation Groundspeed Altitude Reporting Facility
EST Latitude Longitude Course Direction KTS MPH feet Rate Location/Type
05:22PM 44.4854 -75.2686 144° Southeast  Level FlightAware Approximate
05:23PM 44.4531 -75.2364 144° Southeast  Level FlightAware Approximate
05:24PM 44.4208 -75.2041 145° Southeast  Level FlightAware Approximate
05:25PM 44.3871 -75.1747 149° Southeast  Level FlightAware Approximate
05:26PM 44.3533 -75.1457 149° Southeast  Level FlightAware Approximate
05:27PM 44.3195 -75.1168 149° Southeast  Level FlightAware Approximate
05:28PM 44.2856 -75.0879 149° Southeast  Level FlightAware Approximate
05:29PM 44.2517 -75.0591 149° Southeast  Level FlightAware Approximate
05:30PM 44.2179 -75.0303 149° Southeast  Level FlightAware Approximate
05:31PM 44.1840 -75.0015 149° Southeast  Level FlightAware Approximate
05:32PM 44.1501 -74.9727 149° Southeast  Level FlightAware Approximate
05:33PM 44.1162 -74.9440 149° Southeast  Level FlightAware Approximate
05:34PM 44.0823 -74.9153 149° Southeast  Level FlightAware Approximate
05:35PM 44.0484 -74.8866 149° Southeast  Level FlightAware Approximate
05:36PM 44.0145 -74.8580 149° Southeast  Level FlightAware Approximate
05:37PM 43.9806 -74.8294 149° Southeast  Level FlightAware Approximate
05:38PM 43.9467 -74.8008 149° Southeast  Level FlightAware Approximate
05:39PM 43.9127 -74.7723 149° Southeast  Level FlightAware Approximate
05:39PM 44.5936 -75.4197 149° Southeast 124 143 2,000  Level Boston Center
05:40PM 43.8788 -74.7438 149° Southeast  Level FlightAware Approximate
05:40PM 44.5664 -75.3933 145° Southeast 119 137 3,500  Level Boston Center
05:41PM 43.8448 -74.7153 149° Southeast  Level FlightAware Approximate
05:41PM 44.5364 -75.3661 147° Southeast 123 142 4,100  Level Boston Center
05:42PM 43.8109 -74.6869 149° Southeast  Level FlightAware Approximate
05:42PM 44.5058 -75.3433 152° Southeast 125 144 4,700  Level Boston Center
05:43PM 43.7769 -74.6585 149° Southeast  Level FlightAware Approximate
05:43PM 44.4736 -75.3158 149° Southeast 129 148 5,300  Level Boston Center
05:44PM 43.7430 -74.6301 149° Southeast  Level FlightAware Approximate
05:44PM 44.4444 -75.2839 142° Southeast 132 152 5,900  Level Boston Center
05:45PM 44.4144 -75.2556 146° Southeast 131 151 6,400 480 Climbing Boston Center
05:46PM 44.3828 -75.2269 147° Southeast 133 153 6,900 240 Climbing Boston Center
05:47PM 44.3478 -75.1981 149° Southeast 139 160 7,000  Climbing Boston Center
05:48PM 44.3100 -75.1664 149° Southeast 149 171 7,000  Level Boston Center
05:49PM 44.2667 -75.1286 148° Southeast 153 176 7,000  Level Boston Center
05:50PM 44.2303 -75.0978 149° Southeast 153 176 7,000  Level Boston Center
05:51PM 44.1933 -75.0622 145° Southeast 157 181 7,000  Level Boston Center
05:52PM 44.1564 -75.0267 145° Southeast 160 184 7,000  Level Boston Center
05:53PM 44.1200 -74.9981 151° Southeast 156 180 7,000  Level Boston Center
05:54PM 44.0831 -74.9617 145° Southeast 159 183 7,000  Level Boston Center
05:56PM 44.0458 -74.9306 149° Southeast 158 182 7,000  Level Boston Center
05:57PM 44.0094 -74.8939 144° Southeast 160 184 7,000  Level Boston Center
05:58PM 43.9711 -74.8625 149° Southeast 160 184 7,000  Level Boston Center
05:59PM 43.9275 -74.8250 148° Southeast 157 181 7,000  Level Boston Center
06:00PM 43.8919 -74.7931 147° Southeast 155 178 7,100  Climbing Boston Center
06:01PM 43.8553 -74.7625 149° Southeast 154 177 7,100 -60 Level Boston Center
06:02PM 43.8197 -74.7303 147° Southeast 153 176 7,000 -60 Descending Boston Center
06:03PM 43.7844 -74.6994 148° Southeast 152 175 7,000  Level Boston Center
06:04PM 43.7486 -74.6675 147° Southeast 152 175 7,000  Level Boston Center
06:05PM 43.7131 -74.6364 148° Southeast 152 175 7,000  Level Boston Center
06:06PM 43.6775 -74.6047 147° Southeast 152 175 7,000  Level Boston Center
06:07PM 43.6419 -74.5722 147° Southeast 152 175 7,000 -60 Level Boston Center
06:08PM 43.5978 -74.5367 150° Southeast 153 176 6,900 -60 Descending Boston Center
06:09PM 43.5625 -74.5053 147° Southeast 152 175 6,900  Level Boston Center
06:10PM 43.5269 -74.4736 147° Southeast 152 175 6,900  Level Boston Center
06:11PM 43.4914 -74.4417 147° Southeast 152 175 6,900 60 Level Boston Center
06:11PM 43.4700 -74.4239 149° Southeast 153 176 7,000  Climbing Boston Center
06:12PM 43.4553 -74.4106 147° Southeast 153 176 6,900  Descending Boston Center
06:12PM 43.4419 -74.4022 156° South 152 175 7,000  Climbing Boston Center
06:13PM 43.4197 -74.3803 144° Southeast 152 175 6,900  Descending Boston Center
06:13PM 43.4108 -74.3736 151° Southeast 150 173 7,000 60 Climbing Boston Center
06:14PM 43.3800 -74.3481 149° Southeast 147 169 7,000  Level Boston Center
06:14PM 43.3756 -74.3433 142° Southeast 148 170 7,000  Level Boston Center
06:15PM 43.3447 -74.3178 149° Southeast 149 171 7,000  Level Boston Center
06:15PM 43.3403 -74.3133 144° Southeast 150 173 7,000  Level Boston Center
06:16PM 43.3108 -74.2858 146° Southeast 148 170 7,000  Level Boston Center
06:16PM 43.3056 -74.2806 144° Southeast 150 173 7,000  Level Boston Center
06:17PM 43.2725 -74.2542 150° Southeast 149 171 7,000  Level Boston Center
06:17PM 43.2681 -74.2500 146° Southeast 147 169 7,000 -420 Level Boston Center
06:18PM 43.2386 -74.2189 142° Southeast 155 178 6,600 -420 Descending Boston Center
06:18PM 43.2344 -74.2117 128° Southeast 158 182 6,600 -420 Level Boston Center
06:19PM 43.2036 -74.1753 139° Southeast 168 193 6,200 -540 Descending Boston Center
06:19PM 43.1997 -74.1672 124° Southeast 175 201 6,100 -600 Descending Boston Center
06:20PM 43.1664 -74.1233 136° Southeast 176 203 5,600 -540 Descending Boston Center
06:20PM 43.1656 -74.1203 111° Southeast 177 204 5,600 -480 Level Boston Center
06:21PM 43.1306 -74.0794 140° Southeast 173 199 5,100 -600 Descending Boston Center
06:21PM 43.1286 -74.0753 123° Southeast 176 203 5,000 -600 Descending Boston Center
06:22PM 43.0950 -74.0306 136° Southeast 180 207 4,500 -600 Descending Boston Center
06:22PM 43.0922 -74.0275 141° Southeast 180 207 4,400 -600 Descending Boston Center
06:23PM 43.0569 -73.9833 138° Southeast 173 199 3,900 -540 Descending Boston Center
06:23PM 43.0525 -73.9758 129° Southeast 169 194 3,800 -600 Descending Boston Center
06:24PM 43.0253 -73.9419 138° Southeast 159 183 3,300 -540 Descending Boston Center
06:24PM 43.0211 -73.9358 133° Southeast 155 178 3,300 -540 Level Boston Center
06:25PM 42.9953 -73.9028 137° Southeast 151 174 2,800 -540 Descending Boston Center
06:25PM 42.9914 -73.8992 146° Southeast 146 168 2,800 -300 Level Boston Center
06:26PM 42.9631 -73.8617 136° Southeast 148 170 2,500 -300 Descending Boston Center
06:26PM 42.9600 -73.8594 152° Southeast 148 170 2,500 -420 Level Boston Center
06:27PM 42.9331 -73.8267 138° Southeast 144 166 2,100 -540 Descending Boston Center
06:27PM 42.9303 -73.8228 134° Southeast 143 165 2,000 -120 Descending Boston Center
06:28PM 42.8975 -73.8111 165° South 140 161 2,000 -120 Level Boston Center
06:28PM 42.8958 -73.8111 180° South 137 158 1,900  Descending Boston Center
06:29PM 42.8575 -73.8100 179° South 130 150 2,000 -180 Climbing Boston Center
06:30PM 42.8236 -73.8072 177° South 110 127 1,600 -480 Descending Boston Center
06:31PM 42.7936 -73.8058 178° South 102 117 1,100 -600 Descending Boston Center
06:32PM 42.7639 -73.8044 178° South 107 123 400 -720 Descending Boston Center
06:34PM 42.7491 -73.8020 160° South  Level Estimated
06:41PM 42.7491 -73.8020 160° South  Level Estimated
06:42PM 42.7491 -73.8020 160° South  Level Estimated
06:43PM 42.7491 -73.8020 160° South  Level Estimated